sensor_id;sensor_type;location;lat;lon;timestamp;temperature;humidity
40960;DHT22;27842;52.272;8.052;2024-03-29T00:00:26;9.20;99.90
40960;DHT22;27842;52.272;8.052;2024-03-29T00:02:52;9.20;99.90
40960;DHT22;27842;52.272;8.052;2024-03-29T00:05:17;9.20;99.90
40960;DHT22;27842;52.272;8.052;2024-03-29T00:07:43;9.20;99.90
40960;DHT22;27842;52.272;8.052;2024-03-29T00:10:09;9.20;99.90
40960;DHT22;27842;52.272;8.052;2024-03-29T00:12:34;9.20;99.90
40960;DHT22;27842;52.272;8.052;2024-03-29T00:15:00;9.30;99.90
40960;DHT22;27842;52.272;8.052;2024-03-29T00:17:25;9.20;99.90
40960;DHT22;27842;52.272;8.052;2024-03-29T00:19:51;9.20;99.90
40960;DHT22;27842;52.272;8.052;2024-03-29T00:22:16;9.20;99.90
40960;DHT22;27842;52.272;8.052;2024-03-29T00:24:42;9.30;99.90
40960;DHT22;27842;52.272;8.052;2024-03-29T00:27:07;9.20;99.90
40960;DHT22;27842;52.272;8.052;2024-03-29T00:29:33;9.20;99.90
40960;DHT22;27842;52.272;8.052;2024-03-29T00:31:59;9.20;99.90
40960;DHT22;27842;52.272;8.052;2024-03-29T00:34:25;9.20;99.90
40960;DHT22;27842;52.272;8.052;2024-03-29T00:36:50;9.20;99.90
40960;DHT22;27842;52.272;8.052;2024-03-29T00:39:18;9.20;99.90
40960;DHT22;27842;52.272;8.052;2024-03-29T00:41:43;9.20;99.90
40960;DHT22;27842;52.272;8.052;2024-03-29T00:44:09;9.20;99.90
40960;DHT22;27842;52.272;8.052;2024-03-29T00:46:34;9.20;99.90
40960;DHT22;27842;52.272;8.052;2024-03-29T00:49:00;9.20;99.90
40960;DHT22;27842;52.272;8.052;2024-03-29T00:51:25;9.20;99.90
40960;DHT22;27842;52.272;8.052;2024-03-29T00:53:51;9.20;99.90
40960;DHT22;27842;52.272;8.052;2024-03-29T00:56:17;9.20;99.90
40960;DHT22;27842;52.272;8.052;2024-03-29T00:58:43;9.20;99.90
40960;DHT22;27842;52.272;8.052;2024-03-29T01:01:08;9.20;99.90
40960;DHT22;27842;52.272;8.052;2024-03-29T01:03:34;9.20;99.90
40960;DHT22;27842;52.272;8.052;2024-03-29T01:05:59;9.20;99.90
40960;DHT22;27842;52.272;8.052;2024-03-29T01:08:25;9.20;99.90
40960;DHT22;27842;52.272;8.052;2024-03-29T01:10:50;9.10;99.90
40960;DHT22;27842;52.272;8.052;2024-03-29T01:13:16;9.20;99.90
40960;DHT22;27842;52.272;8.052;2024-03-29T01:15:41;9.20;99.90
40960;DHT22;27842;52.272;8.052;2024-03-29T01:18:07;9.20;99.90
40960;DHT22;27842;52.272;8.052;2024-03-29T01:20:33;9.20;99.90
40960;DHT22;27842;52.272;8.052;2024-03-29T01:22:59;9.20;99.90
40960;DHT22;27842;52.272;8.052;2024-03-29T01:25:25;9.20;99.90
40960;DHT22;27842;52.272;8.052;2024-03-29T01:27:50;9.20;99.90
40960;DHT22;27842;52.272;8.052;2024-03-29T01:30:16;9.20;99.90
40960;DHT22;27842;52.272;8.052;2024-03-29T01:32:41;9.20;99.90
40960;DHT22;27842;52.272;8.052;2024-03-29T01:35:07;9.20;99.90
40960;DHT22;27842;52.272;8.052;2024-03-29T01:37:32;9.20;99.90
40960;DHT22;27842;52.272;8.052;2024-03-29T01:39:59;9.20;99.90
40960;DHT22;27842;52.272;8.052;2024-03-29T01:42:24;9.20;99.90
40960;DHT22;27842;52.272;8.052;2024-03-29T01:44:50;9.20;99.90
40960;DHT22;27842;52.272;8.052;2024-03-29T01:47:17;9.20;99.90
40960;DHT22;27842;52.272;8.052;2024-03-29T01:49:44;9.20;99.90
40960;DHT22;27842;52.272;8.052;2024-03-29T01:52:11;9.20;99.90
40960;DHT22;27842;52.272;8.052;2024-03-29T01:54:37;9.20;99.90
40960;DHT22;27842;52.272;8.052;2024-03-29T01:57:03;9.10;99.80
40960;DHT22;27842;52.272;8.052;2024-03-29T01:59:29;9.10;99.70
40960;DHT22;27842;52.272;8.052;2024-03-29T02:01:54;9.10;99.70
40960;DHT22;27842;52.272;8.052;2024-03-29T02:04:20;9.10;99.90
40960;DHT22;27842;52.272;8.052;2024-03-29T02:06:47;9.00;99.90
40960;DHT22;27842;52.272;8.052;2024-03-29T02:09:12;9.00;99.80
40960;DHT22;27842;52.272;8.052;2024-03-29T02:11:38;9.10;99.80
40960;DHT22;27842;52.272;8.052;2024-03-29T02:14:03;9.00;99.90
40960;DHT22;27842;52.272;8.052;2024-03-29T02:16:31;9.00;99.90
40960;DHT22;27842;52.272;8.052;2024-03-29T02:18:57;9.00;99.90
40960;DHT22;27842;52.272;8.052;2024-03-29T02:21:22;9.00;99.90
40960;DHT22;27842;52.272;8.052;2024-03-29T02:24:10;9.00;99.90
40960;DHT22;27842;52.272;8.052;2024-03-29T02:26:36;9.00;99.20
40960;DHT22;27842;52.272;8.052;2024-03-29T02:29:04;9.00;99.90
40960;DHT22;27842;52.272;8.052;2024-03-29T02:31:29;8.90;99.90
40960;DHT22;27842;52.272;8.052;2024-03-29T02:33:55;9.00;99.90
40960;DHT22;27842;52.272;8.052;2024-03-29T02:36:21;9.00;99.90
40960;DHT22;27842;52.272;8.052;2024-03-29T02:38:46;9.00;99.90
40960;DHT22;27842;52.272;8.052;2024-03-29T02:41:12;9.00;99.90
40960;DHT22;27842;52.272;8.052;2024-03-29T02:43:37;9.00;99.90
40960;DHT22;27842;52.272;8.052;2024-03-29T02:46:03;9.00;99.90
40960;DHT22;27842;52.272;8.052;2024-03-29T02:48:28;8.90;99.80
40960;DHT22;27842;52.272;8.052;2024-03-29T02:50:54;9.00;99.90
40960;DHT22;27842;52.272;8.052;2024-03-29T02:53:19;8.90;99.80
40960;DHT22;27842;52.272;8.052;2024-03-29T02:55:45;8.90;99.90
40960;DHT22;27842;52.272;8.052;2024-03-29T02:58:10;8.90;99.90
40960;DHT22;27842;52.272;8.052;2024-03-29T03:00:36;8.90;99.90
40960;DHT22;27842;52.272;8.052;2024-03-29T03:03:02;9.00;99.90
40960;DHT22;27842;52.272;8.052;2024-03-29T03:05:27;9.00;99.70
40960;DHT22;27842;52.272;8.052;2024-03-29T03:07:54;9.00;99.70
40960;DHT22;27842;52.272;8.052;2024-03-29T03:10:47;9.00;99.60
40960;DHT22;27842;52.272;8.052;2024-03-29T03:13:26;9.00;99.60
40960;DHT22;27842;52.272;8.052;2024-03-29T03:15:51;9.00;99.60
40960;DHT22;27842;52.272;8.052;2024-03-29T03:18:17;9.00;99.50
40960;DHT22;27842;52.272;8.052;2024-03-29T03:20:42;9.00;99.50
40960;DHT22;27842;52.272;8.052;2024-03-29T03:23:08;9.00;99.70
40960;DHT22;27842;52.272;8.052;2024-03-29T03:25:34;9.00;99.60
40960;DHT22;27842;52.272;8.052;2024-03-29T03:27:59;9.10;99.70
40960;DHT22;27842;52.272;8.052;2024-03-29T03:30:25;9.00;99.60
40960;DHT22;27842;52.272;8.052;2024-03-29T03:32:50;9.10;99.50
40960;DHT22;27842;52.272;8.052;2024-03-29T03:35:16;9.10;99.50
40960;DHT22;27842;52.272;8.052;2024-03-29T03:37:41;9.00;99.60
40960;DHT22;27842;52.272;8.052;2024-03-29T03:40:07;9.10;99.60
40960;DHT22;27842;52.272;8.052;2024-03-29T03:42:33;9.10;99.30
40960;DHT22;27842;52.272;8.052;2024-03-29T03:44:58;9.10;99.40
40960;DHT22;27842;52.272;8.052;2024-03-29T03:47:24;9.10;99.30
40960;DHT22;27842;52.272;8.052;2024-03-29T03:49:49;9.10;99.10
40960;DHT22;27842;52.272;8.052;2024-03-29T03:52:15;9.10;99.20
40960;DHT22;27842;52.272;8.052;2024-03-29T03:54:40;9.20;99.00
40960;DHT22;27842;52.272;8.052;2024-03-29T03:57:06;9.20;98.80
40960;DHT22;27842;52.272;8.052;2024-03-29T03:59:32;9.20;98.70
40960;DHT22;27842;52.272;8.052;2024-03-29T04:01:57;9.20;98.70
40960;DHT22;27842;52.272;8.052;2024-03-29T04:04:23;9.20;98.80
40960;DHT22;27842;52.272;8.052;2024-03-29T04:06:49;9.20;98.80
40960;DHT22;27842;52.272;8.052;2024-03-29T04:09:15;9.10;98.80
40960;DHT22;27842;52.272;8.052;2024-03-29T04:11:43;9.20;98.80
40960;DHT22;27842;52.272;8.052;2024-03-29T04:14:09;9.20;98.50
40960;DHT22;27842;52.272;8.052;2024-03-29T04:16:34;9.20;98.50
40960;DHT22;27842;52.272;8.052;2024-03-29T04:19:00;9.20;98.40
40960;DHT22;27842;52.272;8.052;2024-03-29T04:21:26;9.20;98.50
40960;DHT22;27842;52.272;8.052;2024-03-29T04:23:52;9.20;98.60
40960;DHT22;27842;52.272;8.052;2024-03-29T04:26:18;9.20;98.60
40960;DHT22;27842;52.272;8.052;2024-03-29T04:28:43;9.20;98.50
40960;DHT22;27842;52.272;8.052;2024-03-29T04:31:09;9.20;98.50
40960;DHT22;27842;52.272;8.052;2024-03-29T04:33:34;9.20;98.50
40960;DHT22;27842;52.272;8.052;2024-03-29T04:36:03;9.20;98.60
40960;DHT22;27842;52.272;8.052;2024-03-29T04:38:29;9.20;98.60
40960;DHT22;27842;52.272;8.052;2024-03-29T04:40:56;9.20;98.70
40960;DHT22;27842;52.272;8.052;2024-03-29T04:43:23;9.20;98.60
40960;DHT22;27842;52.272;8.052;2024-03-29T04:45:48;9.20;98.60
40960;DHT22;27842;52.272;8.052;2024-03-29T04:48:14;9.20;98.70
40960;DHT22;27842;52.272;8.052;2024-03-29T04:50:39;9.20;98.70
40960;DHT22;27842;52.272;8.052;2024-03-29T04:53:07;9.20;98.80
40960;DHT22;27842;52.272;8.052;2024-03-29T04:55:33;9.30;98.80
40960;DHT22;27842;52.272;8.052;2024-03-29T04:57:59;9.30;98.70
40960;DHT22;27842;52.272;8.052;2024-03-29T05:00:25;9.30;98.80
40960;DHT22;27842;52.272;8.052;2024-03-29T05:02:50;9.30;98.80
40960;DHT22;27842;52.272;8.052;2024-03-29T05:05:16;9.30;98.90
40960;DHT22;27842;52.272;8.052;2024-03-29T05:07:42;9.30;99.10
40960;DHT22;27842;52.272;8.052;2024-03-29T05:10:07;9.20;99.20
40960;DHT22;27842;52.272;8.052;2024-03-29T05:12:37;9.20;99.30
40960;DHT22;27842;52.272;8.052;2024-03-29T05:15:03;9.20;99.50
40960;DHT22;27842;52.272;8.052;2024-03-29T05:17:29;9.20;99.70
40960;DHT22;27842;52.272;8.052;2024-03-29T05:19:55;9.20;99.90
40960;DHT22;27842;52.272;8.052;2024-03-29T05:22:21;9.10;99.80
40960;DHT22;27842;52.272;8.052;2024-03-29T05:24:46;9.10;99.90
40960;DHT22;27842;52.272;8.052;2024-03-29T05:27:12;9.10;99.90
40960;DHT22;27842;52.272;8.052;2024-03-29T05:29:38;9.10;99.90
40960;DHT22;27842;52.272;8.052;2024-03-29T05:32:04;9.10;99.90
40960;DHT22;27842;52.272;8.052;2024-03-29T05:34:30;9.10;99.90
40960;DHT22;27842;52.272;8.052;2024-03-29T05:36:55;9.10;99.90
40960;DHT22;27842;52.272;8.052;2024-03-29T05:39:21;9.10;99.90
40960;DHT22;27842;52.272;8.052;2024-03-29T05:41:47;9.00;99.90
40960;DHT22;27842;52.272;8.052;2024-03-29T05:44:13;9.00;99.90
40960;DHT22;27842;52.272;8.052;2024-03-29T05:46:38;9.00;99.90
40960;DHT22;27842;52.272;8.052;2024-03-29T05:49:05;9.00;99.90
40960;DHT22;27842;52.272;8.052;2024-03-29T05:51:31;9.00;99.90
40960;DHT22;27842;52.272;8.052;2024-03-29T05:53:57;9.00;99.90
40960;DHT22;27842;52.272;8.052;2024-03-29T05:56:22;8.90;99.90
40960;DHT22;27842;52.272;8.052;2024-03-29T05:58:48;8.90;99.90
40960;DHT22;27842;52.272;8.052;2024-03-29T06:01:13;8.90;99.90
40960;DHT22;27842;52.272;8.052;2024-03-29T06:03:39;8.90;99.90
40960;DHT22;27842;52.272;8.052;2024-03-29T06:06:05;8.90;99.90
40960;DHT22;27842;52.272;8.052;2024-03-29T06:08:30;8.80;99.90
40960;DHT22;27842;52.272;8.052;2024-03-29T06:10:56;8.80;99.90
40960;DHT22;27842;52.272;8.052;2024-03-29T06:13:22;8.90;99.90
40960;DHT22;27842;52.272;8.052;2024-03-29T06:16:06;8.90;99.90
40960;DHT22;27842;52.272;8.052;2024-03-29T06:18:50;8.80;99.90
40960;DHT22;27842;52.272;8.052;2024-03-29T06:21:16;8.90;99.90
40960;DHT22;27842;52.272;8.052;2024-03-29T06:23:41;8.90;99.90
40960;DHT22;27842;52.272;8.052;2024-03-29T06:26:07;8.80;99.90
40960;DHT22;27842;52.272;8.052;2024-03-29T06:28:32;8.80;99.90
40960;DHT22;27842;52.272;8.052;2024-03-29T06:30:58;8.80;99.90
40960;DHT22;27842;52.272;8.052;2024-03-29T06:33:25;8.80;99.90
40960;DHT22;27842;52.272;8.052;2024-03-29T06:35:55;8.80;99.90
40960;DHT22;27842;52.272;8.052;2024-03-29T06:38:20;8.80;99.90
40960;DHT22;27842;52.272;8.052;2024-03-29T06:40:46;8.80;99.90
40960;DHT22;27842;52.272;8.052;2024-03-29T06:43:12;8.80;99.90
40960;DHT22;27842;52.272;8.052;2024-03-29T06:45:40;8.70;99.90
40960;DHT22;27842;52.272;8.052;2024-03-29T06:48:08;8.70;99.90
40960;DHT22;27842;52.272;8.052;2024-03-29T06:50:34;8.70;99.90
40960;DHT22;27842;52.272;8.052;2024-03-29T06:53:00;8.70;99.90
40960;DHT22;27842;52.272;8.052;2024-03-29T06:55:26;8.70;99.90
40960;DHT22;27842;52.272;8.052;2024-03-29T06:57:51;8.70;99.90
40960;DHT22;27842;52.272;8.052;2024-03-29T07:00:17;8.70;99.90
40960;DHT22;27842;52.272;8.052;2024-03-29T07:02:43;8.70;99.90
40960;DHT22;27842;52.272;8.052;2024-03-29T07:05:09;8.70;99.90
40960;DHT22;27842;52.272;8.052;2024-03-29T07:07:37;8.70;99.90
40960;DHT22;27842;52.272;8.052;2024-03-29T07:10:03;8.70;99.90
40960;DHT22;27842;52.272;8.052;2024-03-29T07:12:28;8.70;99.90
40960;DHT22;27842;52.272;8.052;2024-03-29T07:14:54;8.70;99.90
40960;DHT22;27842;52.272;8.052;2024-03-29T07:17:19;8.70;99.90
40960;DHT22;27842;52.272;8.052;2024-03-29T07:19:45;8.70;99.90
40960;DHT22;27842;52.272;8.052;2024-03-29T07:22:11;8.70;99.90
40960;DHT22;27842;52.272;8.052;2024-03-29T07:24:36;8.70;99.90
40960;DHT22;27842;52.272;8.052;2024-03-29T07:27:02;8.70;99.90
40960;DHT22;27842;52.272;8.052;2024-03-29T07:29:27;8.80;99.90
40960;DHT22;27842;52.272;8.052;2024-03-29T07:31:53;8.80;99.90
40960;DHT22;27842;52.272;8.052;2024-03-29T07:34:19;8.80;99.90
40960;DHT22;27842;52.272;8.052;2024-03-29T07:36:45;8.80;99.90
40960;DHT22;27842;52.272;8.052;2024-03-29T07:39:11;8.80;99.90
40960;DHT22;27842;52.272;8.052;2024-03-29T07:41:37;8.70;99.90
40960;DHT22;27842;52.272;8.052;2024-03-29T07:44:03;8.70;99.90
40960;DHT22;27842;52.272;8.052;2024-03-29T07:46:33;8.70;99.90
40960;DHT22;27842;52.272;8.052;2024-03-29T07:48:59;8.70;99.90
40960;DHT22;27842;52.272;8.052;2024-03-29T07:51:24;8.70;99.90
40960;DHT22;27842;52.272;8.052;2024-03-29T07:53:50;8.70;99.90
40960;DHT22;27842;52.272;8.052;2024-03-29T07:56:16;8.70;99.90
40960;DHT22;27842;52.272;8.052;2024-03-29T07:58:42;8.70;99.90
40960;DHT22;27842;52.272;8.052;2024-03-29T08:01:08;8.70;99.90
40960;DHT22;27842;52.272;8.052;2024-03-29T08:03:33;8.70;99.90
40960;DHT22;27842;52.272;8.052;2024-03-29T08:06:00;8.70;99.90
40960;DHT22;27842;52.272;8.052;2024-03-29T08:08:27;8.70;99.90
40960;DHT22;27842;52.272;8.052;2024-03-29T08:10:53;8.60;99.90
40960;DHT22;27842;52.272;8.052;2024-03-29T08:13:19;8.70;99.90
40960;DHT22;27842;52.272;8.052;2024-03-29T08:15:47;8.60;99.90
40960;DHT22;27842;52.272;8.052;2024-03-29T08:18:12;8.70;99.90
40960;DHT22;27842;52.272;8.052;2024-03-29T08:20:38;8.70;99.90
40960;DHT22;27842;52.272;8.052;2024-03-29T08:23:04;8.70;99.90
40960;DHT22;27842;52.272;8.052;2024-03-29T08:25:29;8.70;99.90
40960;DHT22;27842;52.272;8.052;2024-03-29T08:27:55;8.70;99.90
40960;DHT22;27842;52.272;8.052;2024-03-29T08:30:25;8.80;99.90
40960;DHT22;27842;52.272;8.052;2024-03-29T08:32:54;8.80;99.90
40960;DHT22;27842;52.272;8.052;2024-03-29T08:35:19;8.80;99.90
40960;DHT22;27842;52.272;8.052;2024-03-29T08:37:45;8.80;99.90
40960;DHT22;27842;52.272;8.052;2024-03-29T08:40:11;8.90;99.90
40960;DHT22;27842;52.272;8.052;2024-03-29T08:42:37;8.90;99.90
40960;DHT22;27842;52.272;8.052;2024-03-29T08:45:03;8.90;99.90
40960;DHT22;27842;52.272;8.052;2024-03-29T08:47:31;8.90;99.90
40960;DHT22;27842;52.272;8.052;2024-03-29T08:49:57;8.90;99.90
40960;DHT22;27842;52.272;8.052;2024-03-29T08:52:22;9.00;99.90
40960;DHT22;27842;52.272;8.052;2024-03-29T08:54:48;9.00;99.90
40960;DHT22;27842;52.272;8.052;2024-03-29T08:57:13;9.10;99.90
40960;DHT22;27842;52.272;8.052;2024-03-29T08:59:39;9.10;99.90
40960;DHT22;27842;52.272;8.052;2024-03-29T09:02:06;9.10;99.90
40960;DHT22;27842;52.272;8.052;2024-03-29T09:04:32;9.20;99.90
40960;DHT22;27842;52.272;8.052;2024-03-29T09:07:00;9.30;99.90
40960;DHT22;27842;52.272;8.052;2024-03-29T09:09:27;9.40;99.90
40960;DHT22;27842;52.272;8.052;2024-03-29T09:11:53;9.50;99.90
40960;DHT22;27842;52.272;8.052;2024-03-29T09:14:18;9.60;99.90
40960;DHT22;27842;52.272;8.052;2024-03-29T09:16:44;9.70;99.90
40960;DHT22;27842;52.272;8.052;2024-03-29T09:19:12;9.80;99.90
40960;DHT22;27842;52.272;8.052;2024-03-29T09:21:38;9.90;99.90
40960;DHT22;27842;52.272;8.052;2024-03-29T09:24:03;9.90;99.90
40960;DHT22;27842;52.272;8.052;2024-03-29T09:26:29;10.00;99.90
40960;DHT22;27842;52.272;8.052;2024-03-29T09:28:55;10.00;99.90
40960;DHT22;27842;52.272;8.052;2024-03-29T09:31:20;10.10;99.90
40960;DHT22;27842;52.272;8.052;2024-03-29T09:33:46;10.20;99.90
40960;DHT22;27842;52.272;8.052;2024-03-29T09:36:15;10.30;99.90
40960;DHT22;27842;52.272;8.052;2024-03-29T09:38:40;10.40;99.90
40960;DHT22;27842;52.272;8.052;2024-03-29T09:41:14;10.40;99.90
40960;DHT22;27842;52.272;8.052;2024-03-29T09:43:44;10.50;99.90
40960;DHT22;27842;52.272;8.052;2024-03-29T09:46:10;10.50;99.90
40960;DHT22;27842;52.272;8.052;2024-03-29T09:48:37;10.60;99.90
40960;DHT22;27842;52.272;8.052;2024-03-29T09:51:07;10.60;99.90
40960;DHT22;27842;52.272;8.052;2024-03-29T09:53:35;10.70;99.90
40960;DHT22;27842;52.272;8.052;2024-03-29T09:56:04;10.70;99.90
40960;DHT22;27842;52.272;8.052;2024-03-29T09:58:34;10.70;99.90
40960;DHT22;27842;52.272;8.052;2024-03-29T10:01:03;10.70;99.90
40960;DHT22;27842;52.272;8.052;2024-03-29T10:03:30;10.70;99.90
40960;DHT22;27842;52.272;8.052;2024-03-29T10:05:59;10.70;99.90
40960;DHT22;27842;52.272;8.052;2024-03-29T10:08:30;10.60;99.90
40960;DHT22;27842;52.272;8.052;2024-03-29T10:10:59;10.70;99.90
40960;DHT22;27842;52.272;8.052;2024-03-29T10:13:25;10.70;99.90
40960;DHT22;27842;52.272;8.052;2024-03-29T10:15:54;10.70;99.90
40960;DHT22;27842;52.272;8.052;2024-03-29T10:18:27;10.70;99.90
40960;DHT22;27842;52.272;8.052;2024-03-29T10:21:03;10.70;99.90
40960;DHT22;27842;52.272;8.052;2024-03-29T10:23:30;10.70;99.90
40960;DHT22;27842;52.272;8.052;2024-03-29T10:25:55;10.70;99.90
40960;DHT22;27842;52.272;8.052;2024-03-29T10:28:22;10.70;99.90
40960;DHT22;27842;52.272;8.052;2024-03-29T10:30:48;10.70;99.90
40960;DHT22;27842;52.272;8.052;2024-03-29T10:33:15;10.70;99.90
40960;DHT22;27842;52.272;8.052;2024-03-29T10:35:44;10.80;99.90
40960;DHT22;27842;52.272;8.052;2024-03-29T10:38:10;10.80;99.90
40960;DHT22;27842;52.272;8.052;2024-03-29T10:40:39;10.80;99.90
40960;DHT22;27842;52.272;8.052;2024-03-29T10:43:11;10.80;99.90
40960;DHT22;27842;52.272;8.052;2024-03-29T10:45:39;10.80;99.90
40960;DHT22;27842;52.272;8.052;2024-03-29T10:48:06;10.80;99.90
40960;DHT22;27842;52.272;8.052;2024-03-29T10:50:37;10.90;99.90
40960;DHT22;27842;52.272;8.052;2024-03-29T10:53:05;10.90;99.90
40960;DHT22;27842;52.272;8.052;2024-03-29T10:55:33;10.90;99.90
40960;DHT22;27842;52.272;8.052;2024-03-29T10:58:00;10.90;99.90
40960;DHT22;27842;52.272;8.052;2024-03-29T11:00:29;10.90;99.90
40960;DHT22;27842;52.272;8.052;2024-03-29T11:05:32;10.80;99.90
40960;DHT22;27842;52.272;8.052;2024-03-29T11:07:59;10.70;99.90
40960;DHT22;27842;52.272;8.052;2024-03-29T11:10:36;10.70;99.90
40960;DHT22;27842;52.272;8.052;2024-03-29T11:15:47;10.60;99.90
40960;DHT22;27842;52.272;8.052;2024-03-29T11:18:13;10.70;99.90
40960;DHT22;27842;52.272;8.052;2024-03-29T11:20:42;10.70;99.90
40960;DHT22;27842;52.272;8.052;2024-03-29T11:23:13;10.70;99.90
40960;DHT22;27842;52.272;8.052;2024-03-29T11:25:46;10.60;99.90
40960;DHT22;27842;52.272;8.052;2024-03-29T11:28:16;10.70;99.90
40960;DHT22;27842;52.272;8.052;2024-03-29T11:30:50;10.70;99.90
40960;DHT22;27842;52.272;8.052;2024-03-29T11:33:33;10.70;99.90
40960;DHT22;27842;52.272;8.052;2024-03-29T11:36:06;10.80;99.90
40960;DHT22;27842;52.272;8.052;2024-03-29T11:38:34;10.80;99.90
40960;DHT22;27842;52.272;8.052;2024-03-29T11:41:04;10.80;99.90
40960;DHT22;27842;52.272;8.052;2024-03-29T11:43:32;10.80;99.90
40960;DHT22;27842;52.272;8.052;2024-03-29T11:46:16;10.90;99.90
40960;DHT22;27842;52.272;8.052;2024-03-29T11:48:42;11.00;99.90
40960;DHT22;27842;52.272;8.052;2024-03-29T11:51:10;11.00;99.90
40960;DHT22;27842;52.272;8.052;2024-03-29T11:53:37;11.10;99.90
40960;DHT22;27842;52.272;8.052;2024-03-29T11:56:03;11.20;99.90
40960;DHT22;27842;52.272;8.052;2024-03-29T11:58:30;11.30;99.90
40960;DHT22;27842;52.272;8.052;2024-03-29T12:00:57;11.40;99.90
40960;DHT22;27842;52.272;8.052;2024-03-29T12:03:25;11.40;99.90
40960;DHT22;27842;52.272;8.052;2024-03-29T12:05:51;11.50;99.90
40960;DHT22;27842;52.272;8.052;2024-03-29T12:08:20;11.50;99.90
40960;DHT22;27842;52.272;8.052;2024-03-29T12:10:46;11.60;99.90
40960;DHT22;27842;52.272;8.052;2024-03-29T12:13:11;11.70;99.90
40960;DHT22;27842;52.272;8.052;2024-03-29T12:15:37;11.70;99.90
40960;DHT22;27842;52.272;8.052;2024-03-29T12:18:04;11.80;99.90
40960;DHT22;27842;52.272;8.052;2024-03-29T12:20:34;11.90;99.90
40960;DHT22;27842;52.272;8.052;2024-03-29T12:23:03;12.10;99.90
40960;DHT22;27842;52.272;8.052;2024-03-29T12:25:29;12.30;99.90
40960;DHT22;27842;52.272;8.052;2024-03-29T12:27:55;12.40;99.90
40960;DHT22;27842;52.272;8.052;2024-03-29T12:30:22;12.50;99.90
40960;DHT22;27842;52.272;8.052;2024-03-29T12:32:47;12.50;99.90
40960;DHT22;27842;52.272;8.052;2024-03-29T12:35:16;12.60;99.90
40960;DHT22;27842;52.272;8.052;2024-03-29T12:37:48;12.70;99.90
40960;DHT22;27842;52.272;8.052;2024-03-29T12:40:18;12.70;99.90
40960;DHT22;27842;52.272;8.052;2024-03-29T12:42:48;12.80;99.90
40960;DHT22;27842;52.272;8.052;2024-03-29T12:45:14;12.80;99.90
40960;DHT22;27842;52.272;8.052;2024-03-29T12:47:40;12.80;99.90
40960;DHT22;27842;52.272;8.052;2024-03-29T12:50:05;12.80;99.90
40960;DHT22;27842;52.272;8.052;2024-03-29T12:52:41;12.80;99.90
40960;DHT22;27842;52.272;8.052;2024-03-29T12:55:08;12.70;99.90
40960;DHT22;27842;52.272;8.052;2024-03-29T12:57:40;12.70;99.90
40960;DHT22;27842;52.272;8.052;2024-03-29T13:00:08;12.70;99.90
40960;DHT22;27842;52.272;8.052;2024-03-29T13:02:35;12.70;99.90
40960;DHT22;27842;52.272;8.052;2024-03-29T13:05:02;12.70;99.90
40960;DHT22;27842;52.272;8.052;2024-03-29T13:07:29;12.70;99.90
40960;DHT22;27842;52.272;8.052;2024-03-29T13:09:55;12.70;99.90
40960;DHT22;27842;52.272;8.052;2024-03-29T13:12:21;12.70;99.90
40960;DHT22;27842;52.272;8.052;2024-03-29T13:14:47;12.70;99.90
40960;DHT22;27842;52.272;8.052;2024-03-29T13:17:12;12.70;99.90
40960;DHT22;27842;52.272;8.052;2024-03-29T13:19:38;12.70;99.90
40960;DHT22;27842;52.272;8.052;2024-03-29T13:22:04;12.70;99.90
40960;DHT22;27842;52.272;8.052;2024-03-29T13:24:32;12.80;99.90
40960;DHT22;27842;52.272;8.052;2024-03-29T13:26:57;12.80;99.90
40960;DHT22;27842;52.272;8.052;2024-03-29T13:29:23;12.80;99.90
40960;DHT22;27842;52.272;8.052;2024-03-29T13:31:48;12.90;99.90
40960;DHT22;27842;52.272;8.052;2024-03-29T13:34:14;12.90;99.90
40960;DHT22;27842;52.272;8.052;2024-03-29T13:36:42;13.00;99.90
40960;DHT22;27842;52.272;8.052;2024-03-29T13:39:07;13.10;99.90
40960;DHT22;27842;52.272;8.052;2024-03-29T13:41:34;13.20;99.90
40960;DHT22;27842;52.272;8.052;2024-03-29T13:44:03;13.30;99.90
40960;DHT22;27842;52.272;8.052;2024-03-29T13:46:34;13.40;99.90
40960;DHT22;27842;52.272;8.052;2024-03-29T13:49:01;13.60;99.90
40960;DHT22;27842;52.272;8.052;2024-03-29T13:51:27;13.70;99.90
40960;DHT22;27842;52.272;8.052;2024-03-29T13:53:53;13.90;99.90
40960;DHT22;27842;52.272;8.052;2024-03-29T13:56:20;14.00;99.90
40960;DHT22;27842;52.272;8.052;2024-03-29T13:58:45;14.00;99.90
40960;DHT22;27842;52.272;8.052;2024-03-29T14:01:11;13.90;99.90
40960;DHT22;27842;52.272;8.052;2024-03-29T14:03:36;13.90;99.90
40960;DHT22;27842;52.272;8.052;2024-03-29T14:06:02;13.90;99.90
40960;DHT22;27842;52.272;8.052;2024-03-29T14:08:29;13.80;99.90
40960;DHT22;27842;52.272;8.052;2024-03-29T14:10:55;13.80;99.90
40960;DHT22;27842;52.272;8.052;2024-03-29T14:13:20;13.80;99.90
40960;DHT22;27842;52.272;8.052;2024-03-29T14:15:46;13.70;99.90
40960;DHT22;27842;52.272;8.052;2024-03-29T14:18:12;13.70;99.90
40960;DHT22;27842;52.272;8.052;2024-03-29T14:20:38;13.70;99.90
40960;DHT22;27842;52.272;8.052;2024-03-29T14:23:04;13.90;99.90
40960;DHT22;27842;52.272;8.052;2024-03-29T14:25:32;14.00;99.90
40960;DHT22;27842;52.272;8.052;2024-03-29T14:27:58;14.20;99.90
40960;DHT22;27842;52.272;8.052;2024-03-29T14:30:25;14.30;99.90
40960;DHT22;27842;52.272;8.052;2024-03-29T14:32:51;14.40;99.90
40960;DHT22;27842;52.272;8.052;2024-03-29T14:35:17;14.40;99.90
40960;DHT22;27842;52.272;8.052;2024-03-29T14:37:44;14.40;99.90
40960;DHT22;27842;52.272;8.052;2024-03-29T14:40:10;14.40;99.90
40960;DHT22;27842;52.272;8.052;2024-03-29T14:42:38;14.40;99.90
40960;DHT22;27842;52.272;8.052;2024-03-29T14:45:04;14.50;99.90
40960;DHT22;27842;52.272;8.052;2024-03-29T14:47:32;14.50;99.90
40960;DHT22;27842;52.272;8.052;2024-03-29T14:49:58;14.60;99.90
40960;DHT22;27842;52.272;8.052;2024-03-29T14:52:24;14.50;99.90
40960;DHT22;27842;52.272;8.052;2024-03-29T14:54:49;14.50;99.90
40960;DHT22;27842;52.272;8.052;2024-03-29T14:57:15;14.40;99.90
40960;DHT22;27842;52.272;8.052;2024-03-29T14:59:41;14.40;99.90
40960;DHT22;27842;52.272;8.052;2024-03-29T15:02:06;14.30;99.90
40960;DHT22;27842;52.272;8.052;2024-03-29T15:04:32;14.20;99.90
40960;DHT22;27842;52.272;8.052;2024-03-29T15:06:59;14.20;99.90
40960;DHT22;27842;52.272;8.052;2024-03-29T15:09:25;14.20;99.90
40960;DHT22;27842;52.272;8.052;2024-03-29T15:11:51;14.10;99.90
40960;DHT22;27842;52.272;8.052;2024-03-29T15:14:18;14.10;99.90
40960;DHT22;27842;52.272;8.052;2024-03-29T15:16:43;14.10;99.90
40960;DHT22;27842;52.272;8.052;2024-03-29T15:19:09;14.10;99.90
40960;DHT22;27842;52.272;8.052;2024-03-29T15:21:35;14.00;99.90
40960;DHT22;27842;52.272;8.052;2024-03-29T15:24:03;14.00;99.90
40960;DHT22;27842;52.272;8.052;2024-03-29T15:26:28;14.00;99.90
40960;DHT22;27842;52.272;8.052;2024-03-29T15:28:54;14.00;99.90
40960;DHT22;27842;52.272;8.052;2024-03-29T15:31:37;14.00;99.90
40960;DHT22;27842;52.272;8.052;2024-03-29T15:34:03;14.00;99.90
40960;DHT22;27842;52.272;8.052;2024-03-29T15:36:29;14.00;99.90
40960;DHT22;27842;52.272;8.052;2024-03-29T15:38:55;14.00;99.90
40960;DHT22;27842;52.272;8.052;2024-03-29T15:41:27;14.00;99.90